sensor_id;sensor_type;location;lat;lon;timestamp;pressure;altitude;pressure_sealevel;temperature;humidity
51460;BME280;37534;39.772;2.718;2024-01-27T00:01:26;102789.63;;;8.37;100.00
51460;BME280;37534;39.772;2.718;2024-01-27T00:03:52;102793.03;;;8.36;100.00
51460;BME280;37534;39.772;2.718;2024-01-27T00:06:19;102788.63;;;8.29;100.00
51460;BME280;37534;39.772;2.718;2024-01-27T00:08:44;102786.03;;;8.27;100.00
51460;BME280;37534;39.772;2.718;2024-01-27T00:11:11;102788.75;;;8.36;100.00
51460;BME280;37534;39.772;2.718;2024-01-27T00:13:37;102783.59;;;8.36;100.00
51460;BME280;37534;39.772;2.718;2024-01-27T00:16:02;102785.91;;;8.19;100.00
51460;BME280;37534;39.772;2.718;2024-01-27T00:18:28;102802.88;;;8.11;100.00
51460;BME280;37534;39.772;2.718;2024-01-27T00:20:53;102780.41;;;8.01;100.00
51460;BME280;37534;39.772;2.718;2024-01-27T00:23:19;102786.38;;;7.98;100.00
51460;BME280;37534;39.772;2.718;2024-01-27T00:25:44;102784.94;;;8.14;100.00
51460;BME280;37534;39.772;2.718;2024-01-27T00:28:10;102785.03;;;8.19;100.00
51460;BME280;37534;39.772;2.718;2024-01-27T00:30:36;102787.78;;;8.30;100.00
51460;BME280;37534;39.772;2.718;2024-01-27T00:33:01;102787.59;;;8.17;100.00
51460;BME280;37534;39.772;2.718;2024-01-27T00:35:27;102796.75;;;8.03;100.00
51460;BME280;37534;39.772;2.718;2024-01-27T00:37:53;102781.94;;;7.90;100.00
51460;BME280;37534;39.772;2.718;2024-01-27T00:40:18;102767.34;;;7.87;100.00
51460;BME280;37534;39.772;2.718;2024-01-27T00:42:44;102770.25;;;8.07;100.00
51460;BME280;37534;39.772;2.718;2024-01-27T00:45:09;102767.69;;;8.07;100.00
51460;BME280;37534;39.772;2.718;2024-01-27T00:47:35;102772.19;;;8.19;100.00
51460;BME280;37534;39.772;2.718;2024-01-27T00:50:00;102767.56;;;8.01;100.00
51460;BME280;37534;39.772;2.718;2024-01-27T00:52:26;102777.84;;;7.99;100.00
51460;BME280;37534;39.772;2.718;2024-01-27T00:54:52;102771.56;;;7.84;100.00
51460;BME280;37534;39.772;2.718;2024-01-27T00:57:17;102779.28;;;7.85;100.00
51460;BME280;37534;39.772;2.718;2024-01-27T00:59:43;102765.44;;;7.77;100.00
51460;BME280;37534;39.772;2.718;2024-01-27T01:02:09;102769.66;;;7.73;100.00
51460;BME280;37534;39.772;2.718;2024-01-27T01:04:34;102770.47;;;7.72;100.00
51460;BME280;37534;39.772;2.718;2024-01-27T01:07:00;102771.44;;;7.77;100.00
51460;BME280;37534;39.772;2.718;2024-01-27T01:09:25;102764.22;;;7.58;100.00
51460;BME280;37534;39.772;2.718;2024-01-27T01:11:51;102779.38;;;7.90;100.00
51460;BME280;37534;39.772;2.718;2024-01-27T01:14:16;102766.28;;;7.77;100.00
51460;BME280;37534;39.772;2.718;2024-01-27T01:16:42;102753.13;;;7.59;100.00
51460;BME280;37534;39.772;2.718;2024-01-27T01:19:07;102774.63;;;7.64;100.00
51460;BME280;37534;39.772;2.718;2024-01-27T01:21:33;102768.75;;;7.71;100.00
51460;BME280;37534;39.772;2.718;2024-01-27T01:23:59;102760.91;;;7.65;100.00
51460;BME280;37534;39.772;2.718;2024-01-27T01:26:25;102763.84;;;7.85;100.00
51460;BME280;37534;39.772;2.718;2024-01-27T01:28:51;102755.03;;;7.71;100.00
51460;BME280;37534;39.772;2.718;2024-01-27T01:31:17;102761.69;;;7.59;100.00
51460;BME280;37534;39.772;2.718;2024-01-27T01:33:43;102765.88;;;7.56;100.00
51460;BME280;37534;39.772;2.718;2024-01-27T01:36:09;102774.50;;;7.58;100.00
51460;BME280;37534;39.772;2.718;2024-01-27T01:38:35;102772.78;;;7.57;100.00
51460;BME280;37534;39.772;2.718;2024-01-27T01:41:01;102763.22;;;7.50;100.00
51460;BME280;37534;39.772;2.718;2024-01-27T01:43:26;102764.78;;;7.43;100.00
51460;BME280;37534;39.772;2.718;2024-01-27T01:45:52;102772.56;;;7.46;100.00
51460;BME280;37534;39.772;2.718;2024-01-27T01:48:21;102776.00;;;7.47;100.00
51460;BME280;37534;39.772;2.718;2024-01-27T01:50:47;102778.44;;;7.42;100.00
51460;BME280;37534;39.772;2.718;2024-01-27T01:53:13;102780.09;;;7.38;100.00
51460;BME280;37534;39.772;2.718;2024-01-27T01:55:39;102783.75;;;7.50;100.00
51460;BME280;37534;39.772;2.718;2024-01-27T01:58:05;102772.53;;;7.45;100.00
51460;BME280;37534;39.772;2.718;2024-01-27T02:00:31;102793.94;;;7.45;100.00
51460;BME280;37534;39.772;2.718;2024-01-27T02:02:57;102778.16;;;7.27;100.00
51460;BME280;37534;39.772;2.718;2024-01-27T02:05:23;102773.03;;;7.27;100.00
51460;BME280;37534;39.772;2.718;2024-01-27T02:07:48;102786.09;;;7.39;100.00
51460;BME280;37534;39.772;2.718;2024-01-27T02:10:15;102780.69;;;7.25;100.00
51460;BME280;37534;39.772;2.718;2024-01-27T02:12:42;102796.47;;;7.43;100.00
51460;BME280;37534;39.772;2.718;2024-01-27T02:15:11;102786.38;;;7.53;100.00
51460;BME280;37534;39.772;2.718;2024-01-27T02:17:38;102777.91;;;7.57;100.00
51460;BME280;37534;39.772;2.718;2024-01-27T02:20:06;102778.81;;;7.59;100.00
51460;BME280;37534;39.772;2.718;2024-01-27T02:22:32;102768.34;;;7.50;100.00
51460;BME280;37534;39.772;2.718;2024-01-27T02:24:58;102762.94;;;7.36;100.00
51460;BME280;37534;39.772;2.718;2024-01-27T02:27:24;102765.34;;;7.30;100.00
51460;BME280;37534;39.772;2.718;2024-01-27T02:29:49;102763.72;;;7.33;100.00
51460;BME280;37534;39.772;2.718;2024-01-27T02:32:15;102764.34;;;7.21;100.00
51460;BME280;37534;39.772;2.718;2024-01-27T02:34:41;102770.47;;;7.28;100.00
51460;BME280;37534;39.772;2.718;2024-01-27T02:37:06;102760.00;;;7.19;100.00
51460;BME280;37534;39.772;2.718;2024-01-27T02:39:32;102760.88;;;7.19;100.00
51460;BME280;37534;39.772;2.718;2024-01-27T02:41:57;102753.09;;;7.15;100.00
51460;BME280;37534;39.772;2.718;2024-01-27T02:44:23;102755.84;;;7.24;100.00
51460;BME280;37534;39.772;2.718;2024-01-27T02:46:48;102735.91;;;7.11;100.00
51460;BME280;37534;39.772;2.718;2024-01-27T02:49:14;102755.06;;;7.28;100.00
51460;BME280;37534;39.772;2.718;2024-01-27T02:51:39;102757.41;;;7.17;100.00
51460;BME280;37534;39.772;2.718;2024-01-27T02:54:05;102763.59;;;7.27;100.00
51460;BME280;37534;39.772;2.718;2024-01-27T02:56:30;102754.22;;;7.29;100.00
51460;BME280;37534;39.772;2.718;2024-01-27T02:58:56;102746.34;;;7.20;100.00
51460;BME280;37534;39.772;2.718;2024-01-27T03:01:22;102752.38;;;7.22;100.00
51460;BME280;37534;39.772;2.718;2024-01-27T03:03:47;102744.34;;;7.07;100.00
51460;BME280;37534;39.772;2.718;2024-01-27T03:06:13;102738.38;;;7.08;100.00
51460;BME280;37534;39.772;2.718;2024-01-27T03:08:38;102739.53;;;7.22;100.00
51460;BME280;37534;39.772;2.718;2024-01-27T03:11:04;102733.41;;;7.15;100.00
51460;BME280;37534;39.772;2.718;2024-01-27T03:13:29;102739.91;;;7.40;100.00
51460;BME280;37534;39.772;2.718;2024-01-27T03:15:55;102734.66;;;7.34;100.00
51460;BME280;37534;39.772;2.718;2024-01-27T03:18:21;102738.75;;;7.26;100.00
51460;BME280;37534;39.772;2.718;2024-01-27T03:20:47;102732.66;;;7.21;100.00
51460;BME280;37534;39.772;2.718;2024-01-27T03:23:13;102728.22;;;7.14;100.00
51460;BME280;37534;39.772;2.718;2024-01-27T03:25:38;102724.81;;;7.13;100.00
51460;BME280;37534;39.772;2.718;2024-01-27T03:28:04;102722.38;;;7.21;100.00
51460;BME280;37534;39.772;2.718;2024-01-27T03:30:29;102729.91;;;7.12;100.00
51460;BME280;37534;39.772;2.718;2024-01-27T03:32:55;102727.09;;;6.99;100.00
51460;BME280;37534;39.772;2.718;2024-01-27T03:35:20;102715.06;;;6.97;100.00
51460;BME280;37534;39.772;2.718;2024-01-27T03:37:46;102709.22;;;7.04;100.00
51460;BME280;37534;39.772;2.718;2024-01-27T03:40:12;102719.47;;;7.02;100.00
51460;BME280;37534;39.772;2.718;2024-01-27T03:42:38;102714.97;;;6.92;100.00
51460;BME280;37534;39.772;2.718;2024-01-27T03:45:03;102712.44;;;6.94;100.00
51460;BME280;37534;39.772;2.718;2024-01-27T03:47:29;102698.50;;;6.82;100.00
51460;BME280;37534;39.772;2.718;2024-01-27T03:49:54;102708.03;;;6.88;100.00
51460;BME280;37534;39.772;2.718;2024-01-27T03:52:20;102704.84;;;6.98;100.00
51460;BME280;37534;39.772;2.718;2024-01-27T03:54:45;102697.88;;;6.94;100.00
51460;BME280;37534;39.772;2.718;2024-01-27T03:57:11;102699.44;;;6.86;100.00
51460;BME280;37534;39.772;2.718;2024-01-27T03:59:36;102693.22;;;6.76;100.00
51460;BME280;37534;39.772;2.718;2024-01-27T04:02:02;102701.13;;;6.84;100.00
51460;BME280;37534;39.772;2.718;2024-01-27T04:04:28;102693.16;;;6.72;100.00
51460;BME280;37534;39.772;2.718;2024-01-27T04:06:53;102700.00;;;6.73;100.00
51460;BME280;37534;39.772;2.718;2024-01-27T04:09:19;102687.97;;;6.70;100.00
51460;BME280;37534;39.772;2.718;2024-01-27T04:11:44;102711.16;;;6.75;100.00
51460;BME280;37534;39.772;2.718;2024-01-27T04:14:10;102703.72;;;6.87;100.00
51460;BME280;37534;39.772;2.718;2024-01-27T04:16:35;102699.03;;;6.68;100.00
51460;BME280;37534;39.772;2.718;2024-01-27T04:19:01;102697.13;;;6.57;100.00
51460;BME280;37534;39.772;2.718;2024-01-27T04:21:26;102707.63;;;6.68;100.00
51460;BME280;37534;39.772;2.718;2024-01-27T04:23:52;102700.84;;;6.72;100.00
51460;BME280;37534;39.772;2.718;2024-01-27T04:26:17;102697.88;;;6.94;100.00
51460;BME280;37534;39.772;2.718;2024-01-27T04:28:43;102703.66;;;6.82;100.00
51460;BME280;37534;39.772;2.718;2024-01-27T04:31:10;102705.19;;;6.76;100.00
51460;BME280;37534;39.772;2.718;2024-01-27T04:33:35;102710.25;;;6.73;100.00
51460;BME280;37534;39.772;2.718;2024-01-27T04:36:01;102703.09;;;6.58;100.00
51460;BME280;37534;39.772;2.718;2024-01-27T04:38:26;102698.81;;;6.58;100.00
51460;BME280;37534;39.772;2.718;2024-01-27T04:40:52;102692.31;;;6.73;100.00
51460;BME280;37534;39.772;2.718;2024-01-27T04:43:18;102697.53;;;6.77;100.00
51460;BME280;37534;39.772;2.718;2024-01-27T04:45:45;102673.25;;;6.61;100.00
51460;BME280;37534;39.772;2.718;2024-01-27T04:48:12;102681.53;;;6.88;100.00
51460;BME280;37534;39.772;2.718;2024-01-27T04:50:37;102697.78;;;6.88;100.00
51460;BME280;37534;39.772;2.718;2024-01-27T04:53:04;102690.66;;;6.76;100.00
51460;BME280;37534;39.772;2.718;2024-01-27T04:55:30;102680.09;;;6.62;100.00
51460;BME280;37534;39.772;2.718;2024-01-27T04:57:55;102675.91;;;6.64;100.00
51460;BME280;37534;39.772;2.718;2024-01-27T05:00:21;102688.75;;;6.68;100.00
51460;BME280;37534;39.772;2.718;2024-01-27T05:02:46;102678.47;;;6.64;100.00
51460;BME280;37534;39.772;2.718;2024-01-27T05:05:12;102689.44;;;6.59;100.00
51460;BME280;37534;39.772;2.718;2024-01-27T05:07:38;102693.91;;;6.68;100.00
51460;BME280;37534;39.772;2.718;2024-01-27T05:10:05;102700.03;;;6.74;100.00
51460;BME280;37534;39.772;2.718;2024-01-27T05:12:31;102679.22;;;6.60;100.00
51460;BME280;37534;39.772;2.718;2024-01-27T05:14:56;102692.91;;;6.61;100.00
51460;BME280;37534;39.772;2.718;2024-01-27T05:17:22;102688.84;;;6.71;100.00
51460;BME280;37534;39.772;2.718;2024-01-27T05:19:49;102692.03;;;6.60;100.00
51460;BME280;37534;39.772;2.718;2024-01-27T05:22:15;102707.50;;;6.63;100.00
51460;BME280;37534;39.772;2.718;2024-01-27T05:24:40;102678.19;;;6.54;100.00
51460;BME280;37534;39.772;2.718;2024-01-27T05:27:06;102705.91;;;6.69;100.00
51460;BME280;37534;39.772;2.718;2024-01-27T05:29:31;102709.00;;;6.55;100.00
51460;BME280;37534;39.772;2.718;2024-01-27T05:31:58;102704.50;;;6.43;100.00
51460;BME280;37534;39.772;2.718;2024-01-27T05:34:23;102706.25;;;6.46;100.00
51460;BME280;37534;39.772;2.718;2024-01-27T05:36:49;102706.94;;;6.39;100.00
51460;BME280;37534;39.772;2.718;2024-01-27T05:39:14;102714.53;;;6.36;100.00
51460;BME280;37534;39.772;2.718;2024-01-27T05:41:40;102720.66;;;6.41;100.00
51460;BME280;37534;39.772;2.718;2024-01-27T05:44:05;102719.63;;;6.71;100.00
51460;BME280;37534;39.772;2.718;2024-01-27T05:46:31;102711.88;;;6.69;100.00
51460;BME280;37534;39.772;2.718;2024-01-27T05:48:56;102709.94;;;6.59;100.00
51460;BME280;37534;39.772;2.718;2024-01-27T05:51:26;102695.13;;;6.45;100.00
51460;BME280;37534;39.772;2.718;2024-01-27T05:53:52;102702.00;;;6.48;100.00
51460;BME280;37534;39.772;2.718;2024-01-27T05:56:18;102713.97;;;6.47;100.00
51460;BME280;37534;39.772;2.718;2024-01-27T05:58:47;102712.13;;;6.42;100.00
51460;BME280;37534;39.772;2.718;2024-01-27T06:01:12;102713.03;;;6.44;100.00
51460;BME280;37534;39.772;2.718;2024-01-27T06:03:38;102715.53;;;6.41;100.00
51460;BME280;37534;39.772;2.718;2024-01-27T06:06:06;102719.75;;;6.39;100.00
51460;BME280;37534;39.772;2.718;2024-01-27T06:08:31;102713.69;;;6.35;100.00
51460;BME280;37534;39.772;2.718;2024-01-27T06:10:57;102714.72;;;6.42;100.00
51460;BME280;37534;39.772;2.718;2024-01-27T06:13:22;102714.66;;;6.40;100.00
51460;BME280;37534;39.772;2.718;2024-01-27T06:15:48;102724.06;;;6.40;100.00
51460;BME280;37534;39.772;2.718;2024-01-27T06:18:13;102729.47;;;6.52;100.00
51460;BME280;37534;39.772;2.718;2024-01-27T06:20:39;102738.19;;;6.60;100.00
51460;BME280;37534;39.772;2.718;2024-01-27T06:23:05;102733.75;;;6.53;100.00
51460;BME280;37534;39.772;2.718;2024-01-27T06:25:32;102733.03;;;6.57;100.00
51460;BME280;37534;39.772;2.718;2024-01-27T06:27:57;102734.94;;;6.68;100.00
51460;BME280;37534;39.772;2.718;2024-01-27T06:30:23;102745.16;;;6.66;100.00
51460;BME280;37534;39.772;2.718;2024-01-27T06:32:49;102748.66;;;6.70;100.00
51460;BME280;37534;39.772;2.718;2024-01-27T06:35:15;102758.72;;;6.60;100.00
51460;BME280;37534;39.772;2.718;2024-01-27T06:37:40;102751.41;;;6.41;100.00
51460;BME280;37534;39.772;2.718;2024-01-27T06:40:06;102738.44;;;6.33;100.00
51460;BME280;37534;39.772;2.718;2024-01-27T06:42:34;102760.59;;;6.31;100.00
51460;BME280;37534;39.772;2.718;2024-01-27T06:44:59;102749.19;;;6.20;100.00
51460;BME280;37534;39.772;2.718;2024-01-27T06:47:25;102751.66;;;6.15;100.00
51460;BME280;37534;39.772;2.718;2024-01-27T06:49:50;102757.69;;;6.17;100.00
51460;BME280;37534;39.772;2.718;2024-01-27T06:52:16;102775.19;;;6.34;100.00
51460;BME280;37534;39.772;2.718;2024-01-27T06:54:41;102770.19;;;6.38;100.00
51460;BME280;37534;39.772;2.718;2024-01-27T06:57:29;102774.50;;;6.41;100.00
51460;BME280;37534;39.772;2.718;2024-01-27T06:59:55;102771.81;;;6.35;100.00
51460;BME280;37534;39.772;2.718;2024-01-27T07:02:26;102772.75;;;6.38;100.00
51460;BME280;37534;39.772;2.718;2024-01-27T07:04:53;102767.44;;;6.32;100.00
51460;BME280;37534;39.772;2.718;2024-01-27T07:07:25;102771.16;;;6.43;100.00
51460;BME280;37534;39.772;2.718;2024-01-27T07:09:51;102773.59;;;6.39;100.00
51460;BME280;37534;39.772;2.718;2024-01-27T07:12:19;102777.06;;;6.41;100.00
51460;BME280;37534;39.772;2.718;2024-01-27T07:14:45;102761.75;;;6.44;100.00
51460;BME280;37534;39.772;2.718;2024-01-27T07:17:10;102780.97;;;6.61;100.00
51460;BME280;37534;39.772;2.718;2024-01-27T07:19:36;102769.06;;;6.63;100.00
51460;BME280;37534;39.772;2.718;2024-01-27T07:22:01;102781.19;;;6.71;100.00
51460;BME280;37534;39.772;2.718;2024-01-27T07:24:29;102776.88;;;6.70;100.00
51460;BME280;37534;39.772;2.718;2024-01-27T07:26:55;102758.91;;;6.70;100.00
51460;BME280;37534;39.772;2.718;2024-01-27T07:29:20;102779.72;;;6.82;100.00
51460;BME280;37534;39.772;2.718;2024-01-27T07:31:46;102773.81;;;6.84;100.00
51460;BME280;37534;39.772;2.718;2024-01-27T07:34:11;102766.44;;;6.98;100.00
51460;BME280;37534;39.772;2.718;2024-01-27T07:36:37;102765.06;;;7.16;100.00
51460;BME280;37534;39.772;2.718;2024-01-27T07:39:03;102777.34;;;7.29;100.00
51460;BME280;37534;39.772;2.718;2024-01-27T07:41:30;102761.88;;;7.26;100.00
51460;BME280;37534;39.772;2.718;2024-01-27T07:43:56;102777.56;;;7.40;100.00
51460;BME280;37534;39.772;2.718;2024-01-27T07:46:21;102777.53;;;7.38;100.00
51460;BME280;37534;39.772;2.718;2024-01-27T07:48:48;102783.06;;;7.57;100.00
51460;BME280;37534;39.772;2.718;2024-01-27T07:51:15;102770.97;;;7.53;100.00
51460;BME280;37534;39.772;2.718;2024-01-27T07:53:40;102777.91;;;7.57;100.00
51460;BME280;37534;39.772;2.718;2024-01-27T07:56:07;102779.66;;;7.59;100.00
51460;BME280;37534;39.772;2.718;2024-01-27T07:58:32;102767.47;;;7.49;100.00
51460;BME280;37534;39.772;2.718;2024-01-27T08:00:59;102790.06;;;7.67;100.00
51460;BME280;37534;39.772;2.718;2024-01-27T08:03:25;102781.84;;;7.85;100.00
51460;BME280;37534;39.772;2.718;2024-01-27T08:05:51;102789.81;;;7.99;100.00
51460;BME280;37534;39.772;2.718;2024-01-27T08:08:16;102776.81;;;7.90;100.00
51460;BME280;37534;39.772;2.718;2024-01-27T08:10:42;102788.03;;;7.95;100.00
51460;BME280;37534;39.772;2.718;2024-01-27T08:13:07;102786.47;;;8.03;100.00
51460;BME280;37534;39.772;2.718;2024-01-27T08:15:33;102789.34;;;8.22;100.00
51460;BME280;37534;39.772;2.718;2024-01-27T08:17:58;102791.97;;;8.23;100.00
51460;BME280;37534;39.772;2.718;2024-01-27T08:20:24;102792.00;;;8.25;100.00
51460;BME280;37534;39.772;2.718;2024-01-27T08:22:50;102792.84;;;8.25;100.00
51460;BME280;37534;39.772;2.718;2024-01-27T08:25:17;102789.34;;;8.22;100.00
51460;BME280;37534;39.772;2.718;2024-01-27T08:27:43;102793.75;;;8.29;100.00
51460;BME280;37534;39.772;2.718;2024-01-27T08:30:09;102791.97;;;8.23;100.00
51460;BME280;37534;39.772;2.718;2024-01-27T08:32:35;102810.00;;;8.25;100.00
51460;BME280;37534;39.772;2.718;2024-01-27T08:35:01;102816.97;;;8.32;100.00
51460;BME280;37534;39.772;2.718;2024-01-27T08:37:26;102810.16;;;8.34;100.00
51460;BME280;37534;39.772;2.718;2024-01-27T08:39:52;102807.53;;;8.32;100.00
51460;BME280;37534;39.772;2.718;2024-01-27T08:42:18;102806.69;;;8.32;100.00
51460;BME280;37534;39.772;2.718;2024-01-27T08:44:43;102807.59;;;8.35;100.00
51460;BME280;37534;39.772;2.718;2024-01-27T08:47:09;102813.75;;;8.42;100.00
51460;BME280;37534;39.772;2.718;2024-01-27T08:49:34;102800.25;;;8.55;100.00
51460;BME280;37534;39.772;2.718;2024-01-27T08:52:00;102811.75;;;8.78;100.00
51460;BME280;37534;39.772;2.718;2024-01-27T08:54:26;102816.19;;;8.89;100.00
51460;BME280;37534;39.772;2.718;2024-01-27T08:56:51;102810.22;;;8.90;100.00
51460;BME280;37534;39.772;2.718;2024-01-27T08:59:17;102818.94;;;9.67;100.00
51460;BME280;37534;39.772;2.718;2024-01-27T09:01:42;102809.94;;;11.25;100.00
51460;BME280;37534;39.772;2.718;2024-01-27T09:04:08;102818.72;;;13.35;100.00
51460;BME280;37534;39.772;2.718;2024-01-27T09:06:34;102808.44;;;14.52;100.00
51460;BME280;37534;39.772;2.718;2024-01-27T09:09:00;102830.78;;;16.66;100.00
51460;BME280;37534;39.772;2.718;2024-01-27T09:11:26;102837.25;;;18.54;100.00
51460;BME280;37534;39.772;2.718;2024-01-27T09:13:55;102834.81;;;19.43;82.99
51460;BME280;37534;39.772;2.718;2024-01-27T09:16:21;102829.94;;;20.94;74.53
51460;BME280;37534;39.772;2.718;2024-01-27T09:18:46;102829.78;;;21.22;71.06
51460;BME280;37534;39.772;2.718;2024-01-27T09:21:12;102836.56;;;22.61;67.11
51460;BME280;37534;39.772;2.718;2024-01-27T09:23:39;102840.84;;;23.79;59.78
51460;BME280;37534;39.772;2.718;2024-01-27T09:26:05;102840.09;;;24.99;56.99
51460;BME280;37534;39.772;2.718;2024-01-27T09:28:30;102831.28;;;25.79;49.57
51460;BME280;37534;39.772;2.718;2024-01-27T09:30:56;102834.38;;;26.77;48.48
51460;BME280;37534;39.772;2.718;2024-01-27T09:33:21;102839.13;;;27.57;45.83
51460;BME280;37534;39.772;2.718;2024-01-27T09:35:49;102845.25;;;27.99;43.95
51460;BME280;37534;39.772;2.718;2024-01-27T09:38:14;102840.28;;;28.07;41.08
51460;BME280;37534;39.772;2.718;2024-01-27T09:40:41;102844.00;;;28.04;42.19
51460;BME280;37534;39.772;2.718;2024-01-27T09:43:07;102845.50;;;27.54;42.62
51460;BME280;37534;39.772;2.718;2024-01-27T09:45:37;102839.41;;;27.66;43.12
51460;BME280;37534;39.772;2.718;2024-01-27T09:48:03;102830.25;;;27.58;41.67
51460;BME280;37534;39.772;2.718;2024-01-27T09:50:30;102831.38;;;26.98;44.07
51460;BME280;37534;39.772;2.718;2024-01-27T09:52:56;102834.06;;;28.34;41.62
51460;BME280;37534;39.772;2.718;2024-01-27T09:55:21;102845.63;;;29.47;40.99
51460;BME280;37534;39.772;2.718;2024-01-27T09:57:48;102844.22;;;30.71;38.37
51460;BME280;37534;39.772;2.718;2024-01-27T10:00:14;102849.66;;;31.38;38.17
51460;BME280;37534;39.772;2.718;2024-01-27T10:02:42;102851.28;;;31.94;36.22
51460;BME280;37534;39.772;2.718;2024-01-27T10:05:08;102858.03;;;32.09;36.04
51460;BME280;37534;39.772;2.718;2024-01-27T10:07:34;102852.13;;;32.57;35.75
51460;BME280;37534;39.772;2.718;2024-01-27T10:10:00;102860.88;;;32.59;34.88
51460;BME280;37534;39.772;2.718;2024-01-27T10:12:26;102862.22;;;32.54;34.67
51460;BME280;37534;39.772;2.718;2024-01-27T10:14:53;102864.00;;;32.22;34.60
51460;BME280;37534;39.772;2.718;2024-01-27T10:17:23;102862.78;;;32.48;35.36
51460;BME280;37534;39.772;2.718;2024-01-27T10:20:02;102861.75;;;32.18;34.65
51460;BME280;37534;39.772;2.718;2024-01-27T10:22:36;102861.22;;;32.24;34.63
51460;BME280;37534;39.772;2.718;2024-01-27T10:25:02;102861.16;;;33.28;33.44
51460;BME280;37534;39.772;2.718;2024-01-27T10:27:27;102860.81;;;32.50;34.47
51460;BME280;37534;39.772;2.718;2024-01-27T10:29:54;102861.09;;;33.18;32.66
51460;BME280;37534;39.772;2.718;2024-01-27T10:32:20;102856.50;;;32.99;33.13
51460;BME280;37534;39.772;2.718;2024-01-27T10:34:49;102862.84;;;34.17;31.41
51460;BME280;37534;39.772;2.718;2024-01-27T10:37:23;102851.91;;;34.95;30.75
51460;BME280;37534;39.772;2.718;2024-01-27T10:39:50;102864.88;;;35.81;29.85
51460;BME280;37534;39.772;2.718;2024-01-27T10:42:24;102857.97;;;35.15;29.63
51460;BME280;37534;39.772;2.718;2024-01-27T10:44:50;102861.25;;;35.09;29.05
51460;BME280;37534;39.772;2.718;2024-01-27T10:47:17;102860.41;;;35.08;29.42
51460;BME280;37534;39.772;2.718;2024-01-27T10:49:46;102848.78;;;34.72;30.06
51460;BME280;37534;39.772;2.718;2024-01-27T10:52:13;102846.75;;;35.65;28.88
51460;BME280;37534;39.772;2.718;2024-01-27T10:54:41;102858.16;;;36.56;28.83
51460;BME280;37534;39.772;2.718;2024-01-27T10:57:07;102854.09;;;36.51;27.13
51460;BME280;37534;39.772;2.718;2024-01-27T10:59:35;102836.66;;;36.29;26.86
51460;BME280;37534;39.772;2.718;2024-01-27T11:02:01;102845.53;;;35.59;27.56
51460;BME280;37534;39.772;2.718;2024-01-27T11:04:28;102850.34;;;34.92;26.05
51460;BME280;37534;39.772;2.718;2024-01-27T11:06:55;102851.97;;;36.29;25.64
51460;BME280;37534;39.772;2.718;2024-01-27T11:09:22;102847.63;;;35.84;25.42
51460;BME280;37534;39.772;2.718;2024-01-27T11:11:48;102847.22;;;35.78;25.59
51460;BME280;37534;39.772;2.718;2024-01-27T11:14:14;102846.53;;;34.95;25.87
51460;BME280;37534;39.772;2.718;2024-01-27T11:16:39;102843.31;;;35.91;25.22
51460;BME280;37534;39.772;2.718;2024-01-27T11:19:13;102834.56;;;36.41;25.24
51460;BME280;37534;39.772;2.718;2024-01-27T11:21:39;102843.56;;;36.66;25.28
51460;BME280;37534;39.772;2.718;2024-01-27T11:24:17;102842.34;;;36.52;24.33
51460;BME280;37534;39.772;2.718;2024-01-27T11:26:44;102838.16;;;37.01;24.14
51460;BME280;37534;39.772;2.718;2024-01-27T11:29:10;102826.47;;;37.59;23.63
51460;BME280;37534;39.772;2.718;2024-01-27T11:31:44;102816.59;;;37.84;22.79
51460;BME280;37534;39.772;2.718;2024-01-27T11:34:11;102823.94;;;38.23;22.35
51460;BME280;37534;39.772;2.718;2024-01-27T11:36:43;102816.66;;;38.72;21.98
51460;BME280;37534;39.772;2.718;2024-01-27T11:39:29;102810.19;;;39.35;21.53
51460;BME280;37534;39.772;2.718;2024-01-27T11:42:05;102807.69;;;39.34;21.10
51460;BME280;37534;39.772;2.718;2024-01-27T11:44:36;102806.94;;;39.63;21.04
51460;BME280;37534;39.772;2.718;2024-01-27T11:47:02;102803.88;;;39.81;20.80
51460;BME280;37534;39.772;2.718;2024-01-27T11:49:28;102794.66;;;39.76;20.83
51460;BME280;37534;39.772;2.718;2024-01-27T11:51:54;102794.66;;;39.61;20.88
51460;BME280;37534;39.772;2.718;2024-01-27T11:54:20;102788.94;;;39.56;21.04
51460;BME280;37534;39.772;2.718;2024-01-27T11:56:46;102790.63;;;39.57;20.60
51460;BME280;37534;39.772;2.718;2024-01-27T11:59:11;102792.41;;;39.79;20.07
51460;BME280;37534;39.772;2.718;2024-01-27T12:01:37;102786.47;;;39.84;20.68
51460;BME280;37534;39.772;2.718;2024-01-27T12:04:04;102785.00;;;40.11;20.00
51460;BME280;37534;39.772;2.718;2024-01-27T12:06:30;102784.44;;;40.01;20.19
51460;BME280;37534;39.772;2.718;2024-01-27T12:08:56;102782.13;;;39.98;20.94
51460;BME280;37534;39.772;2.718;2024-01-27T12:11:24;102764.81;;;39.54;20.62
51460;BME280;37534;39.772;2.718;2024-01-27T12:13:49;102774.78;;;39.53;20.40
51460;BME280;37534;39.772;2.718;2024-01-27T12:16:16;102769.88;;;39.57;20.58
51460;BME280;37534;39.772;2.718;2024-01-27T12:18:42;102768.66;;;39.60;20.55
51460;BME280;37534;39.772;2.718;2024-01-27T12:21:08;102753.84;;;39.56;20.53
51460;BME280;37534;39.772;2.718;2024-01-27T12:23:34;102763.91;;;39.62;20.45
51460;BME280;37534;39.772;2.718;2024-01-27T12:26:00;102743.03;;;37.76;21.64
51460;BME280;37534;39.772;2.718;2024-01-27T12:28:27;102744.69;;;39.19;20.37
51460;BME280;37534;39.772;2.718;2024-01-27T12:30:53;102747.53;;;39.02;20.39
51460;BME280;37534;39.772;2.718;2024-01-27T12:33:19;102741.31;;;38.70;20.99
51460;BME280;37534;39.772;2.718;2024-01-27T12:35:49;102743.06;;;38.23;21.19
51460;BME280;37534;39.772;2.718;2024-01-27T12:38:14;102733.81;;;38.10;21.44
51460;BME280;37534;39.772;2.718;2024-01-27T12:40:40;102728.84;;;38.92;20.46
51460;BME280;37534;39.772;2.718;2024-01-27T12:43:05;102723.16;;;39.10;20.77
51460;BME280;37534;39.772;2.718;2024-01-27T12:45:31;102719.88;;;38.77;20.71